sensor_id;sensor_type;location;lat;lon;timestamp;pressure;altitude;pressure_sealevel;temperature;humidity
804;BME280;25687;49.976;8.240;2023-03-18T00:02:08;99599.78;;;9.53;100.00
804;BME280;25687;49.976;8.240;2023-03-18T00:04:33;99599.06;;;9.51;100.00
804;BME280;25687;49.976;8.240;2023-03-18T00:06:59;99620.56;;;9.34;100.00
804;BME280;25687;49.976;8.240;2023-03-18T00:09:25;99628.50;;;9.30;100.00
804;BME280;25687;49.976;8.240;2023-03-18T00:11:50;99627.91;;;9.41;100.00
804;BME280;25687;49.976;8.240;2023-03-18T00:14:16;99629.91;;;9.35;100.00
804;BME280;25687;49.976;8.240;2023-03-18T00:16:41;99630.16;;;9.31;100.00
804;BME280;25687;49.976;8.240;2023-03-18T00:19:06;99612.28;;;8.99;100.00
804;BME280;25687;49.976;8.240;2023-03-18T00:21:32;99622.22;;;8.73;100.00
804;BME280;25687;49.976;8.240;2023-03-18T00:23:58;99631.84;;;8.53;100.00
804;BME280;25687;49.976;8.240;2023-03-18T00:26:25;99638.28;;;8.61;100.00
804;BME280;25687;49.976;8.240;2023-03-18T00:28:53;99646.31;;;8.70;100.00
804;BME280;25687;49.976;8.240;2023-03-18T00:31:19;99640.59;;;8.81;100.00
804;BME280;25687;49.976;8.240;2023-03-18T00:33:45;99655.66;;;8.71;100.00
804;BME280;25687;49.976;8.240;2023-03-18T00:36:12;99644.59;;;8.71;100.00
804;BME280;25687;49.976;8.240;2023-03-18T00:38:40;99646.97;;;8.74;100.00
804;BME280;25687;49.976;8.240;2023-03-18T00:41:07;99651.09;;;8.77;100.00
804;BME280;25687;49.976;8.240;2023-03-18T00:43:43;99657.56;;;8.68;100.00
804;BME280;25687;49.976;8.240;2023-03-18T00:46:19;99651.38;;;8.56;100.00
804;BME280;25687;49.976;8.240;2023-03-18T00:48:45;99644.72;;;8.52;100.00
804;BME280;25687;49.976;8.240;2023-03-18T00:51:11;99648.13;;;8.52;100.00
804;BME280;25687;49.976;8.240;2023-03-18T00:53:47;99645.47;;;8.54;100.00
804;BME280;25687;49.976;8.240;2023-03-18T00:56:13;99654.81;;;8.55;100.00
804;BME280;25687;49.976;8.240;2023-03-18T00:58:39;99660.63;;;8.59;100.00
804;BME280;25687;49.976;8.240;2023-03-18T01:01:06;99658.22;;;8.55;100.00
804;BME280;25687;49.976;8.240;2023-03-18T01:03:32;99664.34;;;8.69;100.00
804;BME280;25687;49.976;8.240;2023-03-18T01:05:59;99670.94;;;8.73;100.00
804;BME280;25687;49.976;8.240;2023-03-18T01:08:25;99667.00;;;8.67;100.00
804;BME280;25687;49.976;8.240;2023-03-18T01:10:51;99661.03;;;8.67;100.00
804;BME280;25687;49.976;8.240;2023-03-18T01:13:17;99666.56;;;8.59;100.00
804;BME280;25687;49.976;8.240;2023-03-18T01:15:42;99656.66;;;8.69;100.00
804;BME280;25687;49.976;8.240;2023-03-18T01:18:08;99648.63;;;8.59;100.00
804;BME280;25687;49.976;8.240;2023-03-18T01:20:37;99655.50;;;8.59;100.00
804;BME280;25687;49.976;8.240;2023-03-18T01:23:04;99648.38;;;8.64;100.00
804;BME280;25687;49.976;8.240;2023-03-18T01:25:30;99648.97;;;8.69;100.00
804;BME280;25687;49.976;8.240;2023-03-18T01:27:55;99657.88;;;8.62;100.00
804;BME280;25687;49.976;8.240;2023-03-18T01:30:21;99658.53;;;8.65;100.00
804;BME280;25687;49.976;8.240;2023-03-18T01:32:48;99659.88;;;8.72;100.00
804;BME280;25687;49.976;8.240;2023-03-18T01:35:14;99660.69;;;8.73;100.00
804;BME280;25687;49.976;8.240;2023-03-18T01:37:39;99656.81;;;8.82;100.00
804;BME280;25687;49.976;8.240;2023-03-18T01:40:07;99654.19;;;8.67;100.00
804;BME280;25687;49.976;8.240;2023-03-18T01:42:34;99651.84;;;8.63;100.00
804;BME280;25687;49.976;8.240;2023-03-18T01:45:23;99647.13;;;8.55;100.00
804;BME280;25687;49.976;8.240;2023-03-18T01:47:50;99643.81;;;8.53;100.00
804;BME280;25687;49.976;8.240;2023-03-18T01:50:23;99641.84;;;8.58;100.00
804;BME280;25687;49.976;8.240;2023-03-18T01:52:55;99639.13;;;8.61;100.00
804;BME280;25687;49.976;8.240;2023-03-18T01:55:25;99638.78;;;8.67;100.00
804;BME280;25687;49.976;8.240;2023-03-18T01:57:52;99639.50;;;8.69;100.00
804;BME280;25687;49.976;8.240;2023-03-18T02:00:18;99643.81;;;8.53;100.00
804;BME280;25687;49.976;8.240;2023-03-18T02:02:45;99640.97;;;8.42;100.00
804;BME280;25687;49.976;8.240;2023-03-18T02:05:18;99646.00;;;8.43;100.00
804;BME280;25687;49.976;8.240;2023-03-18T02:07:44;99648.50;;;8.45;100.00
804;BME280;25687;49.976;8.240;2023-03-18T02:10:16;99652.50;;;8.50;100.00
804;BME280;25687;49.976;8.240;2023-03-18T02:12:47;99653.97;;;8.54;100.00
804;BME280;25687;49.976;8.240;2023-03-18T02:15:17;99646.91;;;8.60;100.00
804;BME280;25687;49.976;8.240;2023-03-18T02:18:06;99646.38;;;8.53;100.00
804;BME280;25687;49.976;8.240;2023-03-18T02:23:30;99648.50;;;8.45;100.00
804;BME280;25687;49.976;8.240;2023-03-18T02:26:12;99646.72;;;8.47;100.00
804;BME280;25687;49.976;8.240;2023-03-18T02:28:40;99650.03;;;8.65;100.00
804;BME280;25687;49.976;8.240;2023-03-18T02:31:09;99650.28;;;8.60;100.00
804;BME280;25687;49.976;8.240;2023-03-18T02:33:37;99649.84;;;8.52;100.00
804;BME280;25687;49.976;8.240;2023-03-18T02:36:24;99648.53;;;8.27;100.00
804;BME280;25687;49.976;8.240;2023-03-18T02:38:53;99641.16;;;8.38;100.00
804;BME280;25687;49.976;8.240;2023-03-18T02:41:24;99650.56;;;8.38;100.00
804;BME280;25687;49.976;8.240;2023-03-18T02:43:51;99660.41;;;8.46;100.00
804;BME280;25687;49.976;8.240;2023-03-18T02:48:55;99659.22;;;8.35;100.00
804;BME280;25687;49.976;8.240;2023-03-18T02:51:21;99662.94;;;8.47;100.00
804;BME280;25687;49.976;8.240;2023-03-18T02:53:48;99677.00;;;8.56;100.00
804;BME280;25687;49.976;8.240;2023-03-18T02:56:15;99684.50;;;8.59;100.00
804;BME280;25687;49.976;8.240;2023-03-18T02:58:41;99682.69;;;8.61;100.00
804;BME280;25687;49.976;8.240;2023-03-18T03:01:07;99691.72;;;8.52;100.00
804;BME280;25687;49.976;8.240;2023-03-18T03:03:34;99686.00;;;8.47;100.00
804;BME280;25687;49.976;8.240;2023-03-18T03:06:00;99700.75;;;8.42;100.00
804;BME280;25687;49.976;8.240;2023-03-18T03:08:26;99694.88;;;8.40;100.00
804;BME280;25687;49.976;8.240;2023-03-18T03:10:52;99696.19;;;8.31;100.00
804;BME280;25687;49.976;8.240;2023-03-18T03:13:19;99695.03;;;8.37;100.00
804;BME280;25687;49.976;8.240;2023-03-18T03:15:45;99698.19;;;7.91;100.00
804;BME280;25687;49.976;8.240;2023-03-18T03:18:10;99702.19;;;7.97;100.00
804;BME280;25687;49.976;8.240;2023-03-18T03:20:36;99692.63;;;8.00;100.00
804;BME280;25687;49.976;8.240;2023-03-18T03:23:05;99692.75;;;8.15;100.00
804;BME280;25687;49.976;8.240;2023-03-18T03:25:30;99687.31;;;8.21;100.00
804;BME280;25687;49.976;8.240;2023-03-18T03:27:56;99689.53;;;8.27;100.00
804;BME280;25687;49.976;8.240;2023-03-18T03:30:22;99687.97;;;8.24;100.00
804;BME280;25687;49.976;8.240;2023-03-18T03:32:48;99691.06;;;8.31;100.00
804;BME280;25687;49.976;8.240;2023-03-18T03:35:15;99694.28;;;8.35;100.00
804;BME280;25687;49.976;8.240;2023-03-18T03:37:41;99684.88;;;8.35;100.00
804;BME280;25687;49.976;8.240;2023-03-18T03:40:10;99688.41;;;8.33;100.00
804;BME280;25687;49.976;8.240;2023-03-18T03:42:36;99684.06;;;8.35;100.00
804;BME280;25687;49.976;8.240;2023-03-18T03:45:03;99686.94;;;8.29;100.00
804;BME280;25687;49.976;8.240;2023-03-18T03:47:30;99692.41;;;8.38;100.00
804;BME280;25687;49.976;8.240;2023-03-18T03:49:56;99686.53;;;8.36;100.00
804;BME280;25687;49.976;8.240;2023-03-18T03:52:22;99683.69;;;8.25;100.00
804;BME280;25687;49.976;8.240;2023-03-18T03:54:47;99690.13;;;7.99;100.00
804;BME280;25687;49.976;8.240;2023-03-18T03:57:12;99693.66;;;7.96;100.00
804;BME280;25687;49.976;8.240;2023-03-18T03:59:38;99696.75;;;8.03;100.00
804;BME280;25687;49.976;8.240;2023-03-18T04:02:03;99695.56;;;8.10;100.00
804;BME280;25687;49.976;8.240;2023-03-18T04:04:28;99693.91;;;8.09;100.00
804;BME280;25687;49.976;8.240;2023-03-18T04:06:54;99695.03;;;8.03;100.00
804;BME280;25687;49.976;8.240;2023-03-18T04:09:20;99701.28;;;7.98;100.00
804;BME280;25687;49.976;8.240;2023-03-18T04:11:45;99700.16;;;8.03;100.00
804;BME280;25687;49.976;8.240;2023-03-18T04:14:11;99704.22;;;8.07;100.00
804;BME280;25687;49.976;8.240;2023-03-18T04:16:36;99696.09;;;7.99;100.00
804;BME280;25687;49.976;8.240;2023-03-18T04:19:02;99698.19;;;7.91;100.00
804;BME280;25687;49.976;8.240;2023-03-18T04:21:27;99700.31;;;7.83;100.00
804;BME280;25687;49.976;8.240;2023-03-18T04:23:53;99692.72;;;7.64;100.00
804;BME280;25687;49.976;8.240;2023-03-18T04:26:18;99697.91;;;7.62;100.00
804;BME280;25687;49.976;8.240;2023-03-18T04:28:43;99706.69;;;7.56;100.00
804;BME280;25687;49.976;8.240;2023-03-18T04:31:09;99711.44;;;7.47;100.00
804;BME280;25687;49.976;8.240;2023-03-18T04:33:34;99708.22;;;7.43;100.00
804;BME280;25687;49.976;8.240;2023-03-18T04:35:59;99701.72;;;7.36;100.00
804;BME280;25687;49.976;8.240;2023-03-18T04:38:25;99708.13;;;7.45;100.00
804;BME280;25687;49.976;8.240;2023-03-18T04:40:52;99713.69;;;7.53;100.00
804;BME280;25687;49.976;8.240;2023-03-18T04:43:17;99713.94;;;7.48;100.00
804;BME280;25687;49.976;8.240;2023-03-18T04:45:42;99718.00;;;7.52;100.00
804;BME280;25687;49.976;8.240;2023-03-18T04:48:08;99711.38;;;7.48;100.00
804;BME280;25687;49.976;8.240;2023-03-18T04:50:34;99722.34;;;7.50;100.00
804;BME280;25687;49.976;8.240;2023-03-18T04:53:00;99713.47;;;7.57;100.00
804;BME280;25687;49.976;8.240;2023-03-18T04:55:25;99715.22;;;7.57;100.00
804;BME280;25687;49.976;8.240;2023-03-18T04:57:51;99719.44;;;7.58;100.00
804;BME280;25687;49.976;8.240;2023-03-18T05:00:18;99716.41;;;7.50;100.00
804;BME280;25687;49.976;8.240;2023-03-18T05:02:47;99717.13;;;7.34;100.00
804;BME280;25687;49.976;8.240;2023-03-18T05:05:12;99716.22;;;7.35;100.00
804;BME280;25687;49.976;8.240;2023-03-18T05:07:38;99717.22;;;7.33;100.00
804;BME280;25687;49.976;8.240;2023-03-18T05:10:05;99721.22;;;7.38;100.00
804;BME280;25687;49.976;8.240;2023-03-18T05:12:33;99719.47;;;7.39;100.00
804;BME280;25687;49.976;8.240;2023-03-18T05:15:00;99721.81;;;7.43;100.00
804;BME280;25687;49.976;8.240;2023-03-18T05:17:26;99715.22;;;7.39;100.00
804;BME280;25687;49.976;8.240;2023-03-18T05:19:51;99711.59;;;7.43;100.00
804;BME280;25687;49.976;8.240;2023-03-18T05:22:18;99722.59;;;7.46;100.00
804;BME280;25687;49.976;8.240;2023-03-18T05:24:44;99711.44;;;7.47;100.00
804;BME280;25687;49.976;8.240;2023-03-18T05:27:14;99725.88;;;7.48;100.00
804;BME280;25687;49.976;8.240;2023-03-18T05:29:40;99720.63;;;7.33;100.00
804;BME280;25687;49.976;8.240;2023-03-18T05:32:06;99724.53;;;7.40;100.00
804;BME280;25687;49.976;8.240;2023-03-18T05:34:33;99716.91;;;7.39;100.00
804;BME280;25687;49.976;8.240;2023-03-18T05:37:01;99721.31;;;7.37;100.00
804;BME280;25687;49.976;8.240;2023-03-18T05:39:27;99718.41;;;7.25;100.00
804;BME280;25687;49.976;8.240;2023-03-18T05:41:52;99723.78;;;7.38;100.00
804;BME280;25687;49.976;8.240;2023-03-18T05:44:17;99727.63;;;7.47;100.00
804;BME280;25687;49.976;8.240;2023-03-18T05:46:43;99723.19;;;7.51;100.00
804;BME280;25687;49.976;8.240;2023-03-18T05:49:09;99726.34;;;7.38;100.00
804;BME280;25687;49.976;8.240;2023-03-18T05:51:34;99719.34;;;7.42;100.00
804;BME280;25687;49.976;8.240;2023-03-18T05:53:59;99722.94;;;7.38;100.00
804;BME280;25687;49.976;8.240;2023-03-18T05:56:25;99720.47;;;7.36;100.00
804;BME280;25687;49.976;8.240;2023-03-18T05:58:50;99724.81;;;7.34;100.00
804;BME280;25687;49.976;8.240;2023-03-18T06:01:16;99725.66;;;7.35;100.00
804;BME280;25687;49.976;8.240;2023-03-18T06:03:41;99724.28;;;7.27;100.00
804;BME280;25687;49.976;8.240;2023-03-18T06:06:06;99723.06;;;7.17;100.00
804;BME280;25687;49.976;8.240;2023-03-18T06:08:33;99726.50;;;7.16;100.00
804;BME280;25687;49.976;8.240;2023-03-18T06:10:58;99730.25;;;7.09;100.00
804;BME280;25687;49.976;8.240;2023-03-18T06:13:23;99733.09;;;7.03;100.00
804;BME280;25687;49.976;8.240;2023-03-18T06:15:55;99733.97;;;7.02;100.00
804;BME280;25687;49.976;8.240;2023-03-18T06:18:20;99730.59;;;7.01;100.00
804;BME280;25687;49.976;8.240;2023-03-18T06:20:45;99732.56;;;6.96;100.00
804;BME280;25687;49.976;8.240;2023-03-18T06:23:11;99731.56;;;6.99;100.00
804;BME280;25687;49.976;8.240;2023-03-18T06:25:36;99735.84;;;6.98;100.00
804;BME280;25687;49.976;8.240;2023-03-18T06:28:02;99731.84;;;6.92;100.00
804;BME280;25687;49.976;8.240;2023-03-18T06:30:27;99738.84;;;6.89;100.00
804;BME280;25687;49.976;8.240;2023-03-18T06:32:53;99739.22;;;6.79;100.00
804;BME280;25687;49.976;8.240;2023-03-18T06:35:18;99741.38;;;6.89;100.00
804;BME280;25687;49.976;8.240;2023-03-18T06:37:44;99746.50;;;6.89;100.00
804;BME280;25687;49.976;8.240;2023-03-18T06:40:09;99748.59;;;7.00;100.00
804;BME280;25687;49.976;8.240;2023-03-18T06:42:36;99751.38;;;7.32;100.00
804;BME280;25687;49.976;8.240;2023-03-18T06:45:02;99749.31;;;7.57;100.00
804;BME280;25687;49.976;8.240;2023-03-18T06:47:27;99755.19;;;8.30;100.00
804;BME280;25687;49.976;8.240;2023-03-18T06:49:52;99742.34;;;9.29;100.00
804;BME280;25687;49.976;8.240;2023-03-18T06:52:18;99737.53;;;10.73;100.00
804;BME280;25687;49.976;8.240;2023-03-18T06:54:44;99732.56;;;12.20;100.00
804;BME280;25687;49.976;8.240;2023-03-18T06:57:10;99728.09;;;13.22;100.00
804;BME280;25687;49.976;8.240;2023-03-18T06:59:36;99728.75;;;13.85;100.00
804;BME280;25687;49.976;8.240;2023-03-18T07:02:02;99724.28;;;15.01;100.00
804;BME280;25687;49.976;8.240;2023-03-18T07:04:29;99728.81;;;15.85;100.00
804;BME280;25687;49.976;8.240;2023-03-18T07:06:55;99732.09;;;15.87;100.00
804;BME280;25687;49.976;8.240;2023-03-18T07:09:20;99730.00;;;17.15;100.00
804;BME280;25687;49.976;8.240;2023-03-18T07:11:46;99741.00;;;18.25;98.08
804;BME280;25687;49.976;8.240;2023-03-18T07:14:12;99743.47;;;19.46;90.33
804;BME280;25687;49.976;8.240;2023-03-18T07:16:39;99743.81;;;20.13;78.84
804;BME280;25687;49.976;8.240;2023-03-18T07:19:05;99746.41;;;17.25;94.84
804;BME280;25687;49.976;8.240;2023-03-18T07:21:30;99749.25;;;17.02;100.00
804;BME280;25687;49.976;8.240;2023-03-18T07:23:55;99755.25;;;16.93;100.00
804;BME280;25687;49.976;8.240;2023-03-18T07:26:21;99754.81;;;16.57;100.00
804;BME280;25687;49.976;8.240;2023-03-18T07:28:46;99761.53;;;16.28;100.00
804;BME280;25687;49.976;8.240;2023-03-18T07:31:12;99756.81;;;17.45;100.00
804;BME280;25687;49.976;8.240;2023-03-18T07:33:38;99758.88;;;17.51;100.00
804;BME280;25687;49.976;8.240;2023-03-18T07:36:03;99762.53;;;18.82;94.13
804;BME280;25687;49.976;8.240;2023-03-18T07:38:28;99760.22;;;18.04;92.25
804;BME280;25687;49.976;8.240;2023-03-18T07:40:54;99775.03;;;19.07;90.73
804;BME280;25687;49.976;8.240;2023-03-18T07:43:20;99775.19;;;18.39;91.25
804;BME280;25687;49.976;8.240;2023-03-18T07:45:46;99779.47;;;19.24;88.30
804;BME280;25687;49.976;8.240;2023-03-18T07:48:11;99777.13;;;19.75;79.83
804;BME280;25687;49.976;8.240;2023-03-18T07:50:38;99767.94;;;20.07;75.15
804;BME280;25687;49.976;8.240;2023-03-18T07:53:03;99778.19;;;19.64;76.27
804;BME280;25687;49.976;8.240;2023-03-18T07:55:28;99769.25;;;19.85;77.54
804;BME280;25687;49.976;8.240;2023-03-18T07:57:54;99772.00;;;20.36;73.74
804;BME280;25687;49.976;8.240;2023-03-18T08:00:19;99769.06;;;21.41;58.36
804;BME280;25687;49.976;8.240;2023-03-18T08:02:45;99759.03;;;19.56;70.61
804;BME280;25687;49.976;8.240;2023-03-18T08:05:10;99763.16;;;19.40;70.93
804;BME280;25687;49.976;8.240;2023-03-18T08:07:36;99761.75;;;18.72;76.27
804;BME280;25687;49.976;8.240;2023-03-18T08:10:02;99766.72;;;18.65;83.74
804;BME280;25687;49.976;8.240;2023-03-18T08:12:27;99770.25;;;18.36;86.76
804;BME280;25687;49.976;8.240;2023-03-18T08:14:52;99772.03;;;18.46;80.30
804;BME280;25687;49.976;8.240;2023-03-18T08:17:18;99779.16;;;19.09;75.57
804;BME280;25687;49.976;8.240;2023-03-18T08:19:43;99775.28;;;18.48;78.98
804;BME280;25687;49.976;8.240;2023-03-18T08:22:08;99777.47;;;18.15;85.59
804;BME280;25687;49.976;8.240;2023-03-18T08:24:34;99783.50;;;17.76;86.85
804;BME280;25687;49.976;8.240;2023-03-18T08:27:01;99783.97;;;17.01;91.23
804;BME280;25687;49.976;8.240;2023-03-18T08:29:26;99783.13;;;16.29;94.54
804;BME280;25687;49.976;8.240;2023-03-18T08:31:52;99776.13;;;15.33;100.00
804;BME280;25687;49.976;8.240;2023-03-18T08:34:18;99789.97;;;14.55;100.00
804;BME280;25687;49.976;8.240;2023-03-18T08:36:43;99785.50;;;14.57;100.00
804;BME280;25687;49.976;8.240;2023-03-18T08:39:09;99783.50;;;14.83;100.00
804;BME280;25687;49.976;8.240;2023-03-18T08:41:35;99787.28;;;14.79;100.00
804;BME280;25687;49.976;8.240;2023-03-18T08:44:02;99780.13;;;14.71;100.00
804;BME280;25687;49.976;8.240;2023-03-18T08:46:29;99781.88;;;14.01;100.00
804;BME280;25687;49.976;8.240;2023-03-18T08:48:55;99779.09;;;13.44;100.00
804;BME280;25687;49.976;8.240;2023-03-18T08:51:20;99777.97;;;13.95;100.00
804;BME280;25687;49.976;8.240;2023-03-18T08:53:46;99774.53;;;14.19;100.00
804;BME280;25687;49.976;8.240;2023-03-18T08:56:12;99774.88;;;14.26;100.00
804;BME280;25687;49.976;8.240;2023-03-18T08:58:38;99773.41;;;14.80;100.00
804;BME280;25687;49.976;8.240;2023-03-18T09:01:04;99775.97;;;15.03;100.00
804;BME280;25687;49.976;8.240;2023-03-18T09:03:30;99781.69;;;15.29;98.09
804;BME280;25687;49.976;8.240;2023-03-18T09:05:56;99783.38;;;15.51;96.54
804;BME280;25687;49.976;8.240;2023-03-18T09:08:22;99770.69;;;15.48;95.01
804;BME280;25687;49.976;8.240;2023-03-18T09:10:52;99785.31;;;16.03;93.24
804;BME280;25687;49.976;8.240;2023-03-18T09:13:18;99786.59;;;17.11;84.89
804;BME280;25687;49.976;8.240;2023-03-18T09:15:44;99780.34;;;18.12;68.15
804;BME280;25687;49.976;8.240;2023-03-18T09:18:09;99778.50;;;19.25;60.24
804;BME280;25687;49.976;8.240;2023-03-18T09:20:35;99784.19;;;20.01;54.40
804;BME280;25687;49.976;8.240;2023-03-18T09:23:02;99784.75;;;19.68;50.75
804;BME280;25687;49.976;8.240;2023-03-18T09:25:28;99786.19;;;20.07;50.08
804;BME280;25687;49.976;8.240;2023-03-18T09:27:53;99785.28;;;21.45;44.84
804;BME280;25687;49.976;8.240;2023-03-18T09:30:19;99784.75;;;22.40;43.42
804;BME280;25687;49.976;8.240;2023-03-18T09:32:44;99784.25;;;23.40;41.67
804;BME280;25687;49.976;8.240;2023-03-18T09:35:10;99775.31;;;24.40;39.39
804;BME280;25687;49.976;8.240;2023-03-18T09:37:36;99787.28;;;25.31;35.88
804;BME280;25687;49.976;8.240;2023-03-18T09:40:02;99783.00;;;26.30;34.74
804;BME280;25687;49.976;8.240;2023-03-18T09:45:21;99787.47;;;23.50;36.16
804;BME280;25687;49.976;8.240;2023-03-18T09:48:13;99780.13;;;24.37;35.72
804;BME280;25687;49.976;8.240;2023-03-18T09:53:47;99782.91;;;25.60;33.18
804;BME280;25687;49.976;8.240;2023-03-18T09:56:17;99785.91;;;23.79;35.40
804;BME280;25687;49.976;8.240;2023-03-18T09:58:56;99789.00;;;24.65;35.00
804;BME280;25687;49.976;8.240;2023-03-18T10:01:26;99789.00;;;25.60;33.59
804;BME280;25687;49.976;8.240;2023-03-18T10:03:58;99788.84;;;25.97;33.18
804;BME280;25687;49.976;8.240;2023-03-18T10:06:26;99793.75;;;25.72;33.36
804;BME280;25687;49.976;8.240;2023-03-18T10:09:09;99787.69;;;23.63;37.32
804;BME280;25687;49.976;8.240;2023-03-18T10:11:44;99791.75;;;22.48;37.05
804;BME280;25687;49.976;8.240;2023-03-18T10:19:44;99786.63;;;24.11;37.52
804;BME280;25687;49.976;8.240;2023-03-18T10:27:47;99792.00;;;25.57;33.20
804;BME280;25687;49.976;8.240;2023-03-18T10:30:37;99790.81;;;25.88;33.42
804;BME280;25687;49.976;8.240;2023-03-18T10:33:16;99783.13;;;25.00;33.44
804;BME280;25687;49.976;8.240;2023-03-18T10:36:12;99777.09;;;23.33;36.40
804;BME280;25687;49.976;8.240;2023-03-18T10:38:42;99768.72;;;22.75;37.55
804;BME280;25687;49.976;8.240;2023-03-18T10:41:16;99775.47;;;21.88;38.67
804;BME280;25687;49.976;8.240;2023-03-18T10:43:44;99770.75;;;21.59;40.29
804;BME280;25687;49.976;8.240;2023-03-18T10:46:14;99770.31;;;21.04;41.68
804;BME280;25687;49.976;8.240;2023-03-18T10:48:57;99779.16;;;20.69;42.87
804;BME280;25687;49.976;8.240;2023-03-18T10:51:48;99771.50;;;20.06;43.96
804;BME280;25687;49.976;8.240;2023-03-18T10:54:58;99775.03;;;19.79;46.47
804;BME280;25687;49.976;8.240;2023-03-18T10:57:20;99770.59;;;18.89;52.26
804;BME280;25687;49.976;8.240;2023-03-18T10:59:46;99765.88;;;19.02;51.12
804;BME280;25687;49.976;8.240;2023-03-18T11:02:31;99766.94;;;18.82;54.73
804;BME280;25687;49.976;8.240;2023-03-18T11:05:03;99764.00;;;18.95;59.02
804;BME280;25687;49.976;8.240;2023-03-18T11:07:29;99764.63;;;19.07;56.56
804;BME280;25687;49.976;8.240;2023-03-18T11:10:21;99764.63;;;18.69;57.04
804;BME280;25687;49.976;8.240;2023-03-18T11:12:48;99768.56;;;18.55;55.67
804;BME280;25687;49.976;8.240;2023-03-18T11:15:18;99765.50;;;18.22;57.53
804;BME280;25687;49.976;8.240;2023-03-18T11:17:47;99766.13;;;17.86;60.13
804;BME280;25687;49.976;8.240;2023-03-18T11:20:38;99770.06;;;17.81;64.95
804;BME280;25687;49.976;8.240;2023-03-18T11:23:18;99768.97;;;18.03;66.64
804;BME280;25687;49.976;8.240;2023-03-18T11:26:09;99765.81;;;18.09;62.97
804;BME280;25687;49.976;8.240;2023-03-18T11:28:41;99768.28;;;18.01;69.11
804;BME280;25687;49.976;8.240;2023-03-18T11:31:07;99770.06;;;17.90;64.52
804;BME280;25687;49.976;8.240;2023-03-18T11:33:32;99759.69;;;18.38;64.50
804;BME280;25687;49.976;8.240;2023-03-18T11:36:04;99762.19;;;18.67;60.72
804;BME280;25687;49.976;8.240;2023-03-18T11:38:35;99757.66;;;18.69;60.74
804;BME280;25687;49.976;8.240;2023-03-18T11:41:25;99759.88;;;18.27;59.85
804;BME280;25687;49.976;8.240;2023-03-18T11:44:02;99757.59;;;18.14;59.53
804;BME280;25687;49.976;8.240;2023-03-18T11:49:01;99747.69;;;18.27;61.14
804;BME280;25687;49.976;8.240;2023-03-18T11:51:34;99746.09;;;18.44;60.59
804;BME280;25687;49.976;8.240;2023-03-18T11:57:18;99736.56;;;18.35;55.29
804;BME280;25687;49.976;8.240;2023-03-18T12:00:13;99735.63;;;17.59;59.45
804;BME280;25687;49.976;8.240;2023-03-18T12:05:49;99732.22;;;18.16;57.39
804;BME280;25687;49.976;8.240;2023-03-18T12:08:35;99722.19;;;18.59;56.94
804;BME280;25687;49.976;8.240;2023-03-18T12:14:08;99732.84;;;17.90;57.57
804;BME280;25687;49.976;8.240;2023-03-18T12:17:15;99726.25;;;18.05;62.32
804;BME280;25687;49.976;8.240;2023-03-18T12:23:04;99720.91;;;18.45;54.49
804;BME280;25687;49.976;8.240;2023-03-18T12:25:59;99721.84;;;18.71;55.56
804;BME280;25687;49.976;8.240;2023-03-18T12:34:22;99719.19;;;18.26;53.90
804;BME280;25687;49.976;8.240;2023-03-18T12:42:44;99716.56;;;17.39;60.25
804;BME280;25687;49.976;8.240;2023-03-18T12:45:18;99713.78;;;17.89;59.32
804;BME280;25687;49.976;8.240;2023-03-18T12:47:55;99707.56;;;18.20;56.21
804;BME280;25687;49.976;8.240;2023-03-18T12:50:26;99705.78;;;18.58;55.04
804;BME280;25687;49.976;8.240;2023-03-18T12:53:07;99710.31;;;18.18;54.80
804;BME280;25687;49.976;8.240;2023-03-18T12:55:38;99707.88;;;18.07;54.90
804;BME280;25687;49.976;8.240;2023-03-18T12:58:09;99704.16;;;18.47;56.16
804;BME280;25687;49.976;8.240;2023-03-18T13:00:59;99705.66;;;18.50;56.08
804;BME280;25687;49.976;8.240;2023-03-18T13:03:40;99710.03;;;18.21;57.85
804;BME280;25687;49.976;8.240;2023-03-18T13:06:19;99713.63;;;18.48;56.13
804;BME280;25687;49.976;8.240;2023-03-18T13:14:12;99705.53;;;18.14;52.90
804;BME280;25687;49.976;8.240;2023-03-18T13:16:41;99709.66;;;18.06;58.61
804;BME280;25687;49.976;8.240;2023-03-18T13:19:08;99704.00;;;18.21;54.45
804;BME280;25687;49.976;8.240;2023-03-18T13:21:38;99702.28;;;18.67;52.42
804;BME280;25687;49.976;8.240;2023-03-18T13:24:29;99692.66;;;18.96;52.07
804;BME280;25687;49.976;8.240;2023-03-18T13:27:14;99694.91;;;18.35;53.30
804;BME280;25687;49.976;8.240;2023-03-18T13:30:06;99691.75;;;18.59;54.70
804;BME280;25687;49.976;8.240;2023-03-18T13:32:56;99695.09;;;18.23;53.61
804;BME280;25687;49.976;8.240;2023-03-18T13:35:40;99683.72;;;18.25;54.73
804;BME280;25687;49.976;8.240;2023-03-18T13:43:50;99687.56;;;18.20;61.44
804;BME280;25687;49.976;8.240;2023-03-18T13:46:19;99690.22;;;18.66;58.95
804;BME280;25687;49.976;8.240;2023-03-18T13:48:47;99689.44;;;19.20;55.15
804;BME280;25687;49.976;8.240;2023-03-18T13:51:19;99689.91;;;19.15;55.30
804;BME280;25687;49.976;8.240;2023-03-18T13:54:04;99688.47;;;19.39;56.74
804;BME280;25687;49.976;8.240;2023-03-18T14:04:48;99677.59;;;19.44;54.04
804;BME280;25687;49.976;8.240;2023-03-18T14:07:18;99684.13;;;19.66;51.77
804;BME280;25687;49.976;8.240;2023-03-18T14:09:51;99680.38;;;19.68;51.90
804;BME280;25687;49.976;8.240;2023-03-18T14:12:21;99675.19;;;19.77;51.73
804;BME280;25687;49.976;8.240;2023-03-18T14:17:15;99669.09;;;19.60;52.41
804;BME280;25687;49.976;8.240;2023-03-18T14:19:43;99674.28;;;19.60;51.82
804;BME280;25687;49.976;8.240;2023-03-18T14:22:19;99667.34;;;19.68;50.65
804;BME280;25687;49.976;8.240;2023-03-18T14:24:46;99669.50;;;19.29;55.01
804;BME280;25687;49.976;8.240;2023-03-18T14:27:43;99665.03;;;19.21;54.74
804;BME280;25687;49.976;8.240;2023-03-18T14:35:59;99667.72;;;18.93;55.61
804;BME280;25687;49.976;8.240;2023-03-18T14:38:45;99664.88;;;19.05;56.18
804;BME280;25687;49.976;8.240;2023-03-18T14:41:18;99669.16;;;18.78;57.01
804;BME280;25687;49.976;8.240;2023-03-18T14:46:21;99662.88;;;18.52;59.19
804;BME280;25687;49.976;8.240;2023-03-18T14:48:54;99656.56;;;18.55;60.47
804;BME280;25687;49.976;8.240;2023-03-18T14:51:20;99651.91;;;18.31;57.74